createdAt,value
2017-08-15T00:00:46.594Z,969.72
2017-08-15T00:01:46.589Z,969.72
2017-08-15T00:02:46.585Z,969.72
2017-08-15T00:03:46.584Z,969.7
2017-08-15T00:04:46.581Z,969.72
2017-08-15T00:05:46.576Z,969.7
2017-08-15T00:06:46.571Z,969.66
2017-08-15T00:07:46.568Z,969.67
2017-08-15T00:08:46.564Z,969.67
2017-08-15T00:09:46.562Z,969.67
2017-08-15T00:10:46.557Z,969.67
2017-08-15T00:11:46.553Z,969.68
2017-08-15T00:12:46.553Z,969.66
2017-08-15T00:13:46.546Z,969.68
2017-08-15T00:14:46.541Z,969.68
2017-08-15T00:15:46.540Z,969.72
2017-08-15T00:16:46.535Z,969.7
2017-08-15T00:17:46.532Z,969.65
2017-08-15T00:18:46.528Z,969.67
2017-08-15T00:19:46.524Z,969.71
2017-08-15T00:20:46.521Z,969.72
2017-08-15T00:21:46.516Z,969.69
2017-08-15T00:22:46.513Z,969.72
2017-08-15T00:23:46.509Z,969.69
2017-08-15T00:24:46.505Z,969.69
2017-08-15T00:25:46.503Z,969.67
2017-08-15T00:26:46.498Z,969.65
2017-08-15T00:27:46.494Z,969.64
2017-08-15T00:28:46.489Z,969.61
2017-08-15T00:29:46.488Z,969.6
2017-08-15T00:30:46.484Z,969.57
2017-08-15T00:31:46.479Z,969.56
2017-08-15T00:32:46.481Z,969.62
2017-08-15T00:33:46.473Z,969.65
2017-08-15T00:34:46.469Z,969.61
2017-08-15T00:35:46.465Z,969.62
2017-08-15T00:36:46.461Z,969.58
2017-08-15T00:37:46.457Z,969.6
2017-08-15T00:38:46.453Z,969.54
2017-08-15T00:39:46.453Z,969.57
2017-08-15T00:40:46.445Z,969.57
2017-08-15T00:41:46.441Z,969.56
2017-08-15T00:42:46.437Z,969.53
2017-08-15T00:43:46.435Z,969.57
2017-08-15T00:44:46.430Z,969.57
2017-08-15T00:45:46.427Z,969.53
2017-08-15T00:46:46.424Z,969.56
2017-08-15T00:47:46.423Z,969.56
2017-08-15T00:48:46.416Z,969.58
2017-08-15T00:49:46.411Z,969.56
2017-08-15T00:50:46.409Z,969.6
2017-08-15T00:51:46.404Z,969.6
2017-08-15T00:52:46.401Z,969.59
2017-08-15T00:53:46.398Z,969.6
2017-08-15T00:54:46.392Z,969.59
2017-08-15T00:55:46.392Z,969.61
2017-08-15T00:56:46.385Z,969.6
2017-08-15T00:57:46.381Z,969.64
2017-08-15T00:58:46.378Z,969.63
2017-08-15T00:59:46.375Z,969.63
2017-08-15T01:00:46.370Z,969.63
2017-08-15T01:01:46.367Z,969.65
2017-08-15T01:02:46.363Z,969.62
2017-08-15T01:03:46.360Z,969.63
2017-08-15T01:04:46.356Z,969.62
2017-08-15T01:05:46.352Z,969.63
2017-08-15T01:06:46.349Z,969.63
2017-08-15T01:07:46.344Z,969.64
2017-08-15T01:08:46.342Z,969.66
2017-08-15T01:09:46.337Z,969.64
2017-08-15T01:10:46.334Z,969.65
2017-08-15T01:11:46.329Z,969.67
2017-08-15T01:12:46.325Z,969.64
2017-08-15T01:13:46.322Z,969.63
2017-08-15T01:14:46.317Z,969.68
2017-08-15T01:15:46.314Z,969.69
2017-08-15T01:16:46.310Z,969.66
2017-08-15T01:17:46.307Z,969.68
2017-08-15T01:18:46.303Z,969.67
2017-08-15T01:19:46.298Z,969.68
2017-08-15T01:20:46.295Z,969.67
2017-08-15T01:21:46.292Z,969.65
2017-08-15T01:22:46.288Z,969.71
2017-08-15T01:23:46.283Z,969.66
2017-08-15T01:24:46.281Z,969.62
2017-08-15T01:25:46.276Z,969.61
2017-08-15T01:26:46.272Z,969.63
2017-08-15T01:27:46.269Z,969.58
2017-08-15T01:28:46.265Z,969.62
2017-08-15T01:29:46.262Z,969.59
2017-08-15T01:30:46.258Z,969.62
2017-08-15T01:31:46.254Z,969.66
2017-08-15T01:32:46.251Z,969.63
2017-08-15T01:33:46.246Z,969.62
2017-08-15T01:34:46.242Z,969.65
2017-08-15T01:35:46.240Z,969.65
2017-08-15T01:36:46.234Z,969.66
2017-08-15T01:37:46.237Z,969.71
2017-08-15T01:38:46.228Z,969.7
2017-08-15T01:39:46.223Z,969.67
2017-08-15T01:40:46.218Z,969.66
2017-08-15T01:41:46.216Z,969.67
2017-08-15T01:42:46.212Z,969.62
2017-08-15T01:43:46.209Z,969.63
2017-08-15T01:44:46.205Z,969.62
2017-08-15T01:45:46.201Z,969.61
2017-08-15T01:46:46.198Z,969.64
2017-08-15T01:47:46.195Z,969.59
2017-08-15T01:48:46.190Z,969.63
2017-08-15T01:49:46.185Z,969.63
2017-08-15T01:50:46.183Z,969.61
2017-08-15T01:51:46.177Z,969.62
2017-08-15T01:52:46.174Z,969.6
2017-08-15T01:53:46.170Z,969.61
2017-08-15T01:54:46.167Z,969.64
2017-08-15T01:55:46.163Z,969.67
2017-08-15T01:56:46.160Z,969.64
2017-08-15T01:57:46.155Z,969.67
2017-08-15T01:58:46.150Z,969.66
2017-08-15T01:59:46.147Z,969.68
2017-08-15T02:00:46.143Z,969.66
2017-08-15T02:01:46.139Z,969.71
2017-08-15T02:02:46.135Z,969.66
2017-08-15T02:03:46.131Z,969.68
2017-08-15T02:04:46.129Z,969.65
2017-08-15T02:05:46.123Z,969.71
2017-08-15T02:06:46.120Z,969.71
2017-08-15T02:07:46.117Z,969.68
2017-08-15T02:08:46.113Z,969.74
2017-08-15T02:09:46.108Z,969.75
2017-08-15T02:10:46.105Z,969.71
2017-08-15T02:11:46.101Z,969.76
2017-08-15T02:12:46.099Z,969.75
2017-08-15T02:13:46.094Z,969.72
2017-08-15T02:14:46.089Z,969.7
2017-08-15T02:15:46.085Z,969.74
2017-08-15T02:16:46.081Z,969.75
2017-08-15T02:17:46.079Z,969.73
2017-08-15T02:18:46.073Z,969.77
2017-08-15T02:19:46.070Z,969.8
2017-08-15T02:20:46.065Z,969.84
2017-08-15T02:21:46.061Z,969.86
2017-08-15T02:22:46.059Z,969.9
2017-08-15T02:23:46.055Z,969.92
2017-08-15T02:24:46.049Z,969.88
2017-08-15T02:25:46.046Z,969.93
2017-08-15T02:26:46.044Z,969.91
2017-08-15T02:27:46.040Z,969.91
2017-08-15T02:28:46.034Z,969.91
2017-08-15T02:29:46.030Z,969.91
2017-08-15T02:30:46.027Z,969.9
2017-08-15T02:31:46.022Z,969.88
2017-08-15T02:32:46.019Z,969.87
2017-08-15T02:33:46.014Z,969.88
2017-08-15T02:34:46.011Z,969.89
2017-08-15T02:35:46.007Z,969.9
2017-08-15T02:36:46.003Z,969.9
2017-08-15T02:37:46.000Z,969.89
2017-08-15T02:38:46.022Z,969.91
2017-08-15T02:39:45.991Z,969.91
2017-08-15T02:40:45.988Z,969.89
2017-08-15T02:41:45.984Z,969.93
2017-08-15T02:42:45.980Z,969.95
2017-08-15T02:43:45.975Z,969.97
2017-08-15T02:44:45.973Z,969.96
2017-08-15T02:45:45.967Z,969.96
2017-08-15T02:46:45.963Z,969.95
2017-08-15T02:47:45.961Z,969.94
2017-08-15T02:48:45.956Z,969.93
2017-08-15T02:49:45.952Z,969.96
2017-08-15T02:50:45.948Z,969.97
2017-08-15T02:51:45.950Z,969.94
2017-08-15T02:52:45.943Z,969.96
2017-08-15T02:53:45.934Z,969.94
2017-08-15T02:54:45.931Z,969.97
2017-08-15T02:55:45.930Z,969.92
2017-08-15T02:56:45.925Z,969.95
2017-08-15T02:57:45.920Z,969.94
2017-08-15T02:58:45.916Z,969.96
2017-08-15T02:59:45.913Z,969.94
2017-08-15T03:00:45.908Z,969.94
2017-08-15T03:01:45.904Z,969.9
2017-08-15T03:02:45.903Z,969.95
2017-08-15T03:03:45.896Z,969.94
2017-08-15T03:04:45.892Z,969.92
2017-08-15T03:05:45.890Z,969.96
2017-08-15T03:06:45.885Z,969.95
2017-08-15T03:07:45.881Z,969.94
2017-08-15T03:08:45.877Z,969.96
2017-08-15T03:09:45.872Z,969.96
2017-08-15T03:10:45.869Z,969.97
2017-08-15T03:11:45.866Z,970
2017-08-15T03:12:45.862Z,970.03
2017-08-15T03:13:45.859Z,970.04
2017-08-15T03:14:45.854Z,970.04
2017-08-15T03:15:45.851Z,970.02
2017-08-15T03:16:45.845Z,970.03
2017-08-15T03:17:45.843Z,970.07
2017-08-15T03:18:45.838Z,970.07
2017-08-15T03:19:45.835Z,970.1
2017-08-15T03:20:45.834Z,970.05
2017-08-15T03:21:45.827Z,970.11
2017-08-15T03:22:45.822Z,970.09
2017-08-15T03:23:45.819Z,970.09
2017-08-15T03:24:45.815Z,970.12
2017-08-15T03:25:45.811Z,970.06
2017-08-15T03:26:45.807Z,970.12
2017-08-15T03:27:45.804Z,970.15
2017-08-15T03:28:45.799Z,970.1
2017-08-15T03:29:45.796Z,970.11
2017-08-15T03:30:45.791Z,970.1
2017-08-15T03:31:45.787Z,970.11
2017-08-15T03:32:45.784Z,970.05
2017-08-15T03:33:45.779Z,970.08
2017-08-15T03:34:45.775Z,970.08
2017-08-15T03:35:45.773Z,970.03
2017-08-15T03:36:45.769Z,970.02
2017-08-15T03:37:45.763Z,970.03
2017-08-15T03:38:45.759Z,970
2017-08-15T03:39:45.757Z,970.04
2017-08-15T03:40:45.751Z,970
2017-08-15T03:41:45.748Z,969.99
2017-08-15T03:42:45.744Z,970.04
2017-08-15T03:43:45.745Z,970.02
2017-08-15T03:44:45.736Z,970.01
2017-08-15T03:45:45.731Z,969.98
2017-08-15T03:46:45.726Z,969.97
2017-08-15T03:47:45.725Z,969.96
2017-08-15T03:48:45.719Z,970.03
2017-08-15T03:49:45.715Z,970.07
2017-08-15T03:50:45.710Z,970.05
2017-08-15T03:51:45.708Z,970.03
2017-08-15T03:52:45.703Z,970.06
2017-08-15T03:53:45.703Z,970.06
2017-08-15T03:54:45.696Z,970.08
2017-08-15T03:55:45.690Z,970.06
2017-08-15T03:56:45.688Z,970.11
2017-08-15T03:57:45.683Z,970.14
2017-08-15T03:58:45.679Z,970.15
2017-08-15T03:59:45.675Z,970.2
2017-08-15T04:00:45.672Z,970.2
2017-08-15T04:01:45.667Z,970.21
2017-08-15T04:02:45.664Z,970.19
2017-08-15T04:03:45.658Z,970.17
2017-08-15T04:04:45.656Z,970.2
2017-08-15T04:05:45.651Z,970.17
2017-08-15T04:06:45.646Z,970.14
2017-08-15T04:07:45.643Z,970.12
2017-08-15T04:08:45.661Z,970.12
2017-08-15T04:09:45.636Z,970.12
2017-08-15T04:10:45.630Z,970.14
2017-08-15T04:11:45.628Z,970.13
2017-08-15T04:12:45.622Z,970.19
2017-08-15T04:13:45.618Z,970.19
2017-08-15T04:14:45.616Z,970.23
2017-08-15T04:15:45.611Z,970.22
2017-08-15T04:16:45.608Z,970.2
2017-08-15T04:17:45.603Z,970.19
2017-08-15T04:18:45.598Z,970.22
2017-08-15T04:19:45.594Z,970.24
2017-08-15T04:20:45.590Z,970.25
2017-08-15T04:21:45.586Z,970.24
2017-08-15T04:22:45.583Z,970.23
2017-08-15T04:23:45.579Z,970.22
2017-08-15T04:24:45.579Z,970.23
2017-08-15T04:25:45.571Z,970.26
2017-08-15T04:26:45.566Z,970.32
2017-08-15T04:27:45.562Z,970.28
2017-08-15T04:28:45.558Z,970.3
2017-08-15T04:29:45.553Z,970.33
2017-08-15T04:30:45.551Z,970.34
2017-08-15T04:31:45.546Z,970.34
2017-08-15T04:32:45.542Z,970.34
2017-08-15T04:33:45.538Z,970.34
2017-08-15T04:34:45.535Z,970.3
2017-08-15T04:35:45.530Z,970.35
2017-08-15T04:36:45.527Z,970.35
2017-08-15T04:37:45.523Z,970.32
2017-08-15T04:38:45.518Z,970.29
2017-08-15T04:39:45.514Z,970.29
2017-08-15T04:40:45.508Z,970.26
2017-08-15T04:41:45.507Z,970.26
2017-08-15T04:42:45.508Z,970.32
2017-08-15T04:43:45.499Z,970.31
2017-08-15T04:44:45.494Z,970.33
2017-08-15T04:45:45.490Z,970.32
2017-08-15T04:46:45.485Z,970.33
2017-08-15T04:47:45.481Z,970.31
2017-08-15T04:48:45.478Z,970.33
2017-08-15T04:49:45.479Z,970.33
2017-08-15T04:50:45.469Z,970.39
2017-08-15T04:51:45.464Z,970.42
2017-08-15T04:52:45.462Z,970.45
2017-08-15T04:53:45.460Z,970.46
2017-08-15T04:54:45.456Z,970.43
2017-08-15T04:55:45.452Z,970.47
2017-08-15T04:56:45.447Z,970.42
2017-08-15T04:57:45.442Z,970.46
2017-08-15T04:58:45.440Z,970.42
2017-08-15T04:59:45.436Z,970.42
2017-08-15T05:00:45.432Z,970.37
2017-08-15T05:01:45.428Z,970.35
2017-08-15T05:02:45.426Z,970.41
2017-08-15T05:03:45.419Z,970.45
2017-08-15T05:04:45.415Z,970.42
2017-08-15T05:05:45.411Z,970.45
2017-08-15T05:06:45.409Z,970.45
2017-08-15T05:07:45.404Z,970.47
2017-08-15T05:08:45.400Z,970.43
2017-08-15T05:09:45.396Z,970.44
2017-08-15T05:10:45.393Z,970.41
2017-08-15T05:11:45.390Z,970.42
2017-08-15T05:12:45.385Z,970.45
2017-08-15T05:13:45.382Z,970.47
2017-08-15T05:14:45.378Z,970.48
2017-08-15T05:15:45.373Z,970.51
2017-08-15T05:16:45.371Z,970.49
2017-08-15T05:17:45.365Z,970.5
2017-08-15T05:18:45.362Z,970.45
2017-08-15T05:19:45.358Z,970.44
2017-08-15T05:20:45.354Z,970.49
2017-08-15T05:21:45.352Z,970.48
2017-08-15T05:22:45.348Z,970.48
2017-08-15T05:23:45.343Z,970.5
2017-08-15T05:24:45.340Z,970.44
2017-08-15T05:25:45.336Z,970.45
2017-08-15T05:26:45.336Z,970.43
2017-08-15T05:27:45.329Z,970.42
2017-08-15T05:28:45.325Z,970.39
2017-08-15T05:29:45.322Z,970.4
2017-08-15T05:30:45.318Z,970.43
2017-08-15T05:31:45.314Z,970.42
2017-08-15T05:32:45.312Z,970.46
2017-08-15T05:33:45.309Z,970.46
2017-08-15T05:34:45.308Z,970.45
2017-08-15T05:35:45.302Z,970.45
2017-08-15T05:36:45.300Z,970.43
2017-08-15T05:37:45.295Z,970.38
2017-08-15T05:38:45.295Z,970.41
2017-08-15T05:39:45.289Z,970.4
2017-08-15T05:40:45.285Z,970.43
2017-08-15T05:41:45.283Z,970.41
2017-08-15T05:42:45.279Z,970.41
2017-08-15T05:43:45.274Z,970.39
2017-08-15T05:44:45.294Z,970.44
2017-08-15T05:45:45.268Z,970.41
2017-08-15T05:46:45.264Z,970.41
2017-08-15T05:47:45.261Z,970.39
2017-08-15T05:48:45.258Z,970.35
2017-08-15T05:49:45.255Z,970.37
2017-08-15T05:50:45.252Z,970.39
2017-08-15T05:51:45.248Z,970.38
2017-08-15T05:52:45.246Z,970.37
2017-08-15T05:53:45.242Z,970.4
2017-08-15T05:54:45.238Z,970.34
2017-08-15T05:55:45.235Z,970.34
2017-08-15T05:56:45.232Z,970.27
2017-08-15T05:57:45.230Z,970.23
2017-08-15T05:58:45.225Z,970.26
2017-08-15T05:59:45.221Z,970.24
2017-08-15T06:00:45.219Z,970.28
2017-08-15T06:01:45.216Z,970.32
2017-08-15T06:02:45.214Z,970.28
2017-08-15T06:03:45.210Z,970.25
2017-08-15T06:04:45.208Z,970.27
2017-08-15T06:05:45.205Z,970.29
2017-08-15T06:06:45.203Z,970.32
2017-08-15T06:07:45.200Z,970.3
2017-08-15T06:08:45.195Z,970.28
2017-08-15T06:09:45.192Z,970.29
2017-08-15T06:10:45.189Z,970.3
2017-08-15T06:11:45.186Z,970.33
2017-08-15T06:12:45.184Z,970.34
2017-08-15T06:13:45.183Z,970.33
2017-08-15T06:14:45.187Z,970.32
2017-08-15T06:15:45.175Z,970.39
2017-08-15T06:16:45.172Z,970.38
2017-08-15T06:17:45.171Z,970.45
2017-08-15T06:18:45.188Z,970.47
2017-08-15T06:19:45.164Z,970.43
2017-08-15T06:20:45.161Z,970.49
2017-08-15T06:21:45.158Z,970.51
2017-08-15T06:22:45.155Z,970.51
2017-08-15T06:23:45.153Z,970.48
2017-08-15T06:24:45.156Z,970.49
2017-08-15T06:25:45.148Z,970.5
2017-08-15T06:26:45.146Z,970.53
2017-08-15T06:27:45.146Z,970.57
2017-08-15T06:28:45.142Z,970.59
2017-08-15T06:29:45.140Z,970.54
2017-08-15T06:30:45.139Z,970.52
2017-08-15T06:31:45.138Z,970.58
2017-08-15T06:32:45.135Z,970.56
2017-08-15T06:33:45.132Z,970.61
2017-08-15T06:34:45.133Z,970.55
2017-08-15T06:35:45.131Z,970.52
2017-08-15T06:36:45.130Z,970.53
2017-08-15T06:37:45.130Z,970.55
2017-08-15T06:38:45.127Z,970.56
2017-08-15T06:39:45.129Z,970.56
2017-08-15T06:40:45.124Z,970.58
2017-08-15T06:41:45.125Z,970.56
2017-08-15T06:42:45.123Z,970.56
2017-08-15T06:43:45.122Z,970.53
2017-08-15T06:44:45.120Z,970.56
2017-08-15T06:45:45.120Z,970.54
2017-08-15T06:46:45.119Z,970.56
2017-08-15T06:47:45.126Z,970.52
2017-08-15T06:48:45.117Z,970.5
2017-08-15T06:49:45.116Z,970.48
2017-08-15T06:50:45.115Z,970.46
2017-08-15T06:51:45.116Z,970.49
2017-08-15T06:52:45.114Z,970.48
2017-08-15T06:53:45.113Z,970.49
2017-08-15T06:54:45.113Z,970.47
2017-08-15T06:55:45.112Z,970.44
2017-08-15T06:56:45.112Z,970.44
2017-08-15T06:57:45.110Z,970.46
2017-08-15T06:58:45.109Z,970.4
2017-08-15T06:59:45.109Z,970.44
2017-08-15T07:00:45.109Z,970.47
2017-08-15T07:01:45.107Z,970.47
2017-08-15T07:02:45.110Z,970.44
2017-08-15T07:03:45.107Z,970.47
2017-08-15T07:04:45.105Z,970.48
2017-08-15T07:05:45.105Z,970.47
2017-08-15T07:06:45.104Z,970.48
2017-08-15T07:07:45.103Z,970.47
2017-08-15T07:08:45.106Z,970.5
2017-08-15T07:09:45.122Z,970.52
2017-08-15T07:10:45.101Z,970.51
2017-08-15T07:11:45.098Z,970.5
2017-08-15T07:12:45.098Z,970.5
2017-08-15T07:13:45.097Z,970.53
2017-08-15T07:14:45.095Z,970.52
2017-08-15T07:15:45.094Z,970.53
2017-08-15T07:16:45.093Z,970.54
2017-08-15T07:17:45.092Z,970.51
2017-08-15T07:18:45.092Z,970.53
2017-08-15T07:19:45.091Z,970.52
2017-08-15T07:20:45.090Z,970.51
2017-08-15T07:21:45.089Z,970.54
2017-08-15T07:22:45.088Z,970.53
2017-08-15T07:23:45.086Z,970.54
2017-08-15T07:24:45.084Z,970.52
2017-08-15T07:25:45.084Z,970.53
2017-08-15T07:26:45.085Z,970.52
2017-08-15T07:27:45.083Z,970.5
2017-08-15T07:28:45.081Z,970.51
2017-08-15T07:29:45.079Z,970.49
2017-08-15T07:30:45.080Z,970.46
2017-08-15T07:31:45.076Z,970.45
2017-08-15T07:32:45.077Z,970.48
2017-08-15T07:33:45.076Z,970.47
2017-08-15T07:34:45.074Z,970.48
2017-08-15T07:35:45.074Z,970.48
2017-08-15T07:36:45.072Z,970.48
2017-08-15T07:37:45.072Z,970.49
2017-08-15T07:38:45.069Z,970.49
2017-08-15T07:39:45.069Z,970.49
2017-08-15T07:40:45.067Z,970.47
2017-08-15T07:41:45.071Z,970.51
2017-08-15T07:42:45.065Z,970.54
2017-08-15T07:43:45.064Z,970.58
2017-08-15T07:44:45.064Z,970.52
2017-08-15T07:45:45.061Z,970.54
2017-08-15T07:46:45.060Z,970.56
2017-08-15T07:47:45.060Z,970.51
2017-08-15T07:48:45.058Z,970.51
2017-08-15T07:49:45.057Z,970.51
2017-08-15T07:50:45.055Z,970.48
2017-08-15T07:51:45.053Z,970.49
2017-08-15T07:52:45.051Z,970.46
2017-08-15T07:53:45.050Z,970.49
2017-08-15T07:54:45.050Z,970.48
2017-08-15T07:55:45.047Z,970.46
2017-08-15T07:56:45.044Z,970.44
2017-08-15T07:57:45.044Z,970.45
2017-08-15T07:58:45.044Z,970.45
2017-08-15T07:59:45.040Z,970.42
2017-08-15T08:00:45.038Z,970.46
2017-08-15T08:01:45.036Z,970.46
2017-08-15T08:02:45.054Z,970.42
2017-08-15T08:03:45.035Z,970.49
2017-08-15T08:04:45.033Z,970.49
2017-08-15T08:05:45.032Z,970.49
2017-08-15T08:06:45.033Z,970.46
2017-08-15T08:07:45.027Z,970.48
2017-08-15T08:08:45.041Z,970.47
2017-08-15T08:09:45.026Z,970.48
2017-08-15T08:10:45.025Z,970.52
2017-08-15T08:11:45.022Z,970.52
2017-08-15T08:12:45.020Z,970.51
2017-08-15T08:13:45.017Z,970.49
2017-08-15T08:14:45.016Z,970.51
2017-08-15T08:15:45.014Z,970.48
2017-08-15T08:16:45.013Z,970.45
2017-08-15T08:17:45.011Z,970.46
2017-08-15T08:18:45.008Z,970.47
2017-08-15T08:19:45.007Z,970.47
2017-08-15T08:20:45.005Z,970.5
2017-08-15T08:21:45.003Z,970.48
2017-08-15T08:22:45.001Z,970.5
2017-08-15T08:23:44.998Z,970.49
2017-08-15T08:24:44.997Z,970.48
2017-08-15T08:25:44.994Z,970.46
2017-08-15T08:26:44.992Z,970.44
2017-08-15T08:27:44.990Z,970.46
2017-08-15T08:28:44.988Z,970.4
2017-08-15T08:29:44.985Z,970.38
2017-08-15T08:30:44.982Z,970.38
2017-08-15T08:31:44.982Z,970.4
2017-08-15T08:32:44.978Z,970.37
2017-08-15T08:33:44.976Z,970.34
2017-08-15T08:34:44.974Z,970.37
2017-08-15T08:35:44.975Z,970.38
2017-08-15T08:36:44.968Z,970.35
2017-08-15T08:37:44.968Z,970.31
2017-08-15T08:38:44.966Z,970.32
2017-08-15T08:39:44.964Z,970.33
2017-08-15T08:40:44.962Z,970.3
2017-08-15T08:41:44.959Z,970.29
2017-08-15T08:42:44.956Z,970.28
2017-08-15T08:43:44.954Z,970.27
2017-08-15T08:44:44.952Z,970.27
2017-08-15T08:45:44.950Z,970.24
2017-08-15T08:46:44.948Z,970.28
2017-08-15T08:47:44.945Z,970.25
2017-08-15T08:48:44.944Z,970.23
2017-08-15T08:49:44.940Z,970.26
2017-08-15T08:50:44.939Z,970.18
2017-08-15T08:51:44.936Z,970.16
2017-08-15T08:52:44.937Z,970.16
2017-08-15T08:53:44.934Z,970.16
2017-08-15T08:54:44.930Z,970.13
2017-08-15T08:55:44.927Z,970.1
2017-08-15T08:56:44.924Z,970.11
2017-08-15T08:57:44.922Z,970.15
2017-08-15T08:58:44.919Z,970.12
2017-08-15T08:59:44.918Z,970.1
2017-08-15T09:00:44.914Z,970.07
2017-08-15T09:01:44.915Z,970.09
2017-08-15T09:02:44.910Z,970.12
2017-08-15T09:03:44.909Z,970.1
2017-08-15T09:04:44.907Z,970.07
2017-08-15T09:05:44.906Z,970.09
2017-08-15T09:06:44.900Z,970.11
2017-08-15T09:07:44.900Z,970.06
2017-08-15T09:08:44.900Z,970.08
2017-08-15T09:09:44.894Z,970.03
2017-08-15T09:10:44.892Z,970.05
2017-08-15T09:11:44.889Z,970.04
2017-08-15T09:12:44.896Z,970.09
2017-08-15T09:13:44.888Z,970.09
2017-08-15T09:14:44.883Z,970.1
2017-08-15T09:15:44.882Z,970.11
2017-08-15T09:16:44.878Z,970.11
2017-08-15T09:17:44.876Z,970.07
2017-08-15T09:18:44.874Z,970.1
2017-08-15T09:19:44.871Z,970.11
2017-08-15T09:20:44.867Z,970.11
2017-08-15T09:21:44.868Z,970.09
2017-08-15T09:22:44.865Z,970.12
2017-08-15T09:23:44.862Z,970.17
2017-08-15T09:24:44.859Z,970.15
2017-08-15T09:25:44.858Z,970.15
2017-08-15T09:26:44.856Z,970.18
2017-08-15T09:27:44.853Z,970.2
2017-08-15T09:28:44.851Z,970.21
2017-08-15T09:29:44.848Z,970.21
2017-08-15T09:30:44.846Z,970.15
2017-08-15T09:31:44.843Z,970.21
2017-08-15T09:32:44.841Z,970.2
2017-08-15T09:33:44.838Z,970.22
2017-08-15T09:34:44.837Z,970.2
2017-08-15T09:35:44.836Z,970.19
2017-08-15T09:36:44.831Z,970.19
2017-08-15T09:37:44.830Z,970.2
2017-08-15T09:38:44.827Z,970.2
2017-08-15T09:39:44.826Z,970.19
2017-08-15T09:40:44.824Z,970.19
2017-08-15T09:41:44.821Z,970.18
2017-08-15T09:42:44.818Z,970.17
2017-08-15T09:43:44.821Z,970.19
2017-08-15T09:44:44.814Z,970.14
2017-08-15T09:45:44.812Z,970.16
2017-08-15T09:46:44.807Z,970.19
2017-08-15T09:47:44.807Z,970.14
2017-08-15T09:48:44.804Z,970.14
2017-08-15T09:49:44.801Z,970.15
2017-08-15T09:50:44.799Z,970.17
2017-08-15T09:51:44.797Z,970.14
2017-08-15T09:52:44.795Z,970.16
2017-08-15T09:53:44.791Z,970.17
2017-08-15T09:54:44.793Z,970.15
2017-08-15T09:55:44.787Z,970.17
2017-08-15T09:56:44.790Z,970.16
2017-08-15T09:57:44.783Z,970.15
2017-08-15T09:58:44.780Z,970.15
2017-08-15T09:59:44.778Z,970.14
2017-08-15T10:00:44.776Z,970.15
2017-08-15T10:01:44.773Z,970.12
2017-08-15T10:02:44.773Z,970.1
2017-08-15T10:03:44.768Z,970.06
2017-08-15T10:04:44.766Z,970.02
2017-08-15T10:05:44.763Z,970.12
2017-08-15T10:06:44.761Z,970.09
2017-08-15T10:07:44.767Z,970.08
2017-08-15T10:08:44.757Z,970.06
2017-08-15T10:09:44.754Z,970.02
2017-08-15T10:10:44.753Z,970.02
2017-08-15T10:11:44.749Z,969.99
2017-08-15T10:12:44.748Z,970.01
2017-08-15T10:13:44.744Z,969.96
2017-08-15T10:14:44.742Z,969.99
2017-08-15T10:15:44.738Z,969.95
2017-08-15T10:16:44.738Z,969.98
2017-08-15T10:17:44.737Z,969.98
2017-08-15T10:18:44.734Z,970.02
2017-08-15T10:19:44.731Z,970.01
2017-08-15T10:20:44.728Z,970.01
2017-08-15T10:21:44.725Z,970
2017-08-15T10:22:44.723Z,970.02
2017-08-15T10:23:44.721Z,970.02
2017-08-15T10:24:44.720Z,970
2017-08-15T10:25:44.718Z,970.05
2017-08-15T10:26:44.720Z,970.03
2017-08-15T10:27:44.712Z,970
2017-08-15T10:28:44.710Z,969.97
2017-08-15T10:29:44.708Z,970
2017-08-15T10:30:44.704Z,969.97
2017-08-15T10:31:44.703Z,969.97
2017-08-15T10:32:44.700Z,969.97
2017-08-15T10:33:44.697Z,970
2017-08-15T10:34:44.710Z,969.99
2017-08-15T10:35:44.694Z,969.95
2017-08-15T10:36:44.717Z,969.98
2017-08-15T10:37:44.688Z,970
2017-08-15T10:38:44.685Z,970
2017-08-15T10:39:44.684Z,969.98
2017-08-15T10:40:44.681Z,969.96
2017-08-15T10:41:44.679Z,969.96
2017-08-15T10:42:44.677Z,969.98
2017-08-15T10:43:44.674Z,969.95
2017-08-15T10:44:44.672Z,969.94
2017-08-15T10:45:44.671Z,969.94
2017-08-15T10:46:44.667Z,969.9
2017-08-15T10:47:44.665Z,969.87
2017-08-15T10:48:44.664Z,969.91
2017-08-15T10:49:44.661Z,969.91
2017-08-15T10:50:44.657Z,969.88
2017-08-15T10:51:44.656Z,969.9
2017-08-15T10:52:44.653Z,969.86
2017-08-15T10:53:44.651Z,969.89
2017-08-15T10:54:44.649Z,969.86
2017-08-15T10:55:44.646Z,969.9
2017-08-15T10:56:44.645Z,969.9
2017-08-15T10:57:44.642Z,969.89
2017-08-15T10:58:44.639Z,969.88
2017-08-15T10:59:44.636Z,969.89
2017-08-15T11:00:44.634Z,969.9
2017-08-15T11:01:44.632Z,969.88
2017-08-15T11:02:44.633Z,969.9
2017-08-15T11:03:44.625Z,969.91
2017-08-15T11:04:44.624Z,969.9
2017-08-15T11:05:44.623Z,969.9
2017-08-15T11:06:44.619Z,969.91
2017-08-15T11:07:44.617Z,969.91
2017-08-15T11:08:44.615Z,969.9
2017-08-15T11:09:44.613Z,969.96
2017-08-15T11:10:44.610Z,969.94
2017-08-15T11:11:44.607Z,969.93
2017-08-15T11:12:44.605Z,969.94
2017-08-15T11:13:44.604Z,969.94
2017-08-15T11:14:44.604Z,969.96
2017-08-15T11:15:44.598Z,969.96
2017-08-15T11:16:44.597Z,969.98
2017-08-15T11:17:44.594Z,970
2017-08-15T11:18:44.603Z,970.04
2017-08-15T11:19:44.589Z,970.03
2017-08-15T11:20:44.587Z,970.03
2017-08-15T11:21:44.584Z,970.03
2017-08-15T11:22:44.582Z,969.97
2017-08-15T11:23:44.582Z,969.96
2017-08-15T11:24:44.575Z,969.95
2017-08-15T11:25:44.574Z,969.92
2017-08-15T11:26:44.573Z,969.9
2017-08-15T11:27:44.569Z,969.92
2017-08-15T11:28:44.567Z,969.9
2017-08-15T11:29:44.564Z,969.92
2017-08-15T11:30:44.562Z,969.91
2017-08-15T11:31:44.561Z,969.93
2017-08-15T11:32:44.557Z,969.88
2017-08-15T11:33:44.553Z,969.87
2017-08-15T11:34:44.554Z,969.88
2017-08-15T11:35:44.549Z,969.81
2017-08-15T11:36:44.547Z,969.8
2017-08-15T11:37:44.545Z,969.78
2017-08-15T11:38:44.544Z,969.73
2017-08-15T11:39:44.540Z,969.75
2017-08-15T11:40:44.538Z,969.74
2017-08-15T11:41:44.535Z,969.74
2017-08-15T11:42:44.536Z,969.73
2017-08-15T11:43:44.533Z,969.74
2017-08-15T11:44:44.528Z,969.7
2017-08-15T11:45:44.526Z,969.72
2017-08-15T11:46:44.522Z,969.71
2017-08-15T11:47:44.520Z,969.69
2017-08-15T11:48:44.517Z,969.74
2017-08-15T11:49:44.515Z,969.69
2017-08-15T11:50:44.511Z,969.72
2017-08-15T11:51:44.510Z,969.73
2017-08-15T11:52:44.509Z,969.75
2017-08-15T11:53:44.506Z,969.72
2017-08-15T11:54:44.501Z,969.68
2017-08-15T11:55:44.501Z,969.74
2017-08-15T11:56:44.498Z,969.71
2017-08-15T11:57:44.496Z,969.72
2017-08-15T11:58:44.492Z,969.68
2017-08-15T11:59:44.491Z,969.67
2017-08-15T12:00:44.488Z,969.66
2017-08-15T12:01:44.484Z,969.7
2017-08-15T12:02:44.481Z,969.64
2017-08-15T12:03:44.481Z,969.68
2017-08-15T12:04:44.478Z,969.67
2017-08-15T12:05:44.473Z,969.64
2017-08-15T12:06:44.472Z,969.62
2017-08-15T12:07:44.472Z,969.63
2017-08-15T12:08:44.467Z,969.58
2017-08-15T12:09:44.464Z,969.6
2017-08-15T12:10:44.461Z,969.6
2017-08-15T12:11:44.460Z,969.62
2017-08-15T12:12:44.458Z,969.61
2017-08-15T12:13:44.454Z,969.64
2017-08-15T12:14:44.453Z,969.61
2017-08-15T12:15:44.451Z,969.61
2017-08-15T12:16:44.448Z,969.6
2017-08-15T12:17:44.445Z,969.6
2017-08-15T12:18:44.446Z,969.6
2017-08-15T12:19:44.445Z,969.65
2017-08-15T12:20:44.437Z,969.65
2017-08-15T12:21:44.436Z,969.65
2017-08-15T12:22:44.433Z,969.66
2017-08-15T12:23:44.431Z,969.67
2017-08-15T12:24:44.429Z,969.65
2017-08-15T12:25:44.426Z,969.69
2017-08-15T12:26:44.423Z,969.65
2017-08-15T12:27:44.421Z,969.66
2017-08-15T12:28:44.419Z,969.64
2017-08-15T12:29:44.416Z,969.68
2017-08-15T12:30:44.414Z,969.63
2017-08-15T12:31:44.412Z,969.66